Airfield :
LOGIN :

Register | Disclaimer

   EN    FR    IT 

 










Legend :    VFR   Marginal VFR   IFR   Intensive IFR   Very Intensive IFR
Visi :
Ceiling :
>= 8 km
>= 3000ft
5 to 8 km
1000 to 3000 ft
1500m to 5 km
500 to 1000 ft
800 to 1500m
200 to 500 ft
< 800m
< 200 ft
Symbols :   Thunderstorms  Fog  Heavy snow  Heavy precipitations  Wind > 20 kt
SIGMETs :     Misc.  Thunderstorms  Icing  Turbulence  Mountain Waves  Volcanic Ashes






- Airport Elevation : -13 ft
- IATA code : LEY


EHLE - Lelystad

CURRENT METAR :
  • 190355Z AUTO 28012KT 9999 NSC 06/03 Q1011

EXPIRED METARs :
  • 190325Z AUTO 28014KT 250V310 9999 FEW038 06/03 Q1011
  • 190255Z AUTO 28014KT 240V310 9999 FEW018 SCT022 BKN045 06/04 Q1010
  • 190225Z AUTO 26009KT 230V290 9999 BKN018 BKN022 OVC030 06/04 Q1010
  • 190155Z AUTO 23009KT 9999 BKN018 OVC021 06/05 Q1010

TAF TAF EHLE
Valid from the 19 at 00:00 until the 20 at 06:00 UTC


182258Z 1900/2006 22017G27KT 7000 -SHRA TSRA BKN015 SCT020CB
BECMG 1900/1902 9999 NSW SCT025
BECMG 1911/1914 26017KT
BECMG 1915/1918 22014KT
BECMG 1920/1922 5000 -RADZ BKN010



MET'MAP, your aeronautical weather chart ! - Copyright ORBIFLY December 2007 - Disclaimer

ORBIFLY MET'MAP TEAM :

Programming & Development : Alexandra Zaïnal
Concept & original design : Baudouin d'Aumeries
Assistance for programming : Marc-Olivier Méhu
Technical & hardware support : Manuel Goepfert

Contact : metmap@orbifly.com




SOURCES & CREDITS :

   NOAA